Nathalie — OJLP — position and weather

sailwx.info

Track history (hours):
 
Tides and Currents Weather Stations Pressure Air Temp Water Temp Dewpoint Dewpoint Depression Visibility Wind Speed Wind Dir Waves Ship Positions

Nathalie

Last reported at 2014-Jul-31 09:32 UTC. Time now 2014-Jul-31 13:38 UTC.
Position N 59°52' E 021°30'.

Length 64 m; draft 2.2 m.

Type: Cargo ship. MMSI: 230987660.

Date/timePositionNaut miles runAvg speedWind from/ knotsBaromVisibWave heightAir tempDewpointWater temp
2014-Jul-31 09:32N 59°52' E 021°30'17010.0
2014-Jul-30 16:26N 57°47' E 017°47'910.1
2014-Jul-30 15:34N 57°40' E 017°35'10 9.9
2014-Jul-30 14:33N 57°33' E 017°22'10 9.9
2014-Jul-30 13:34N 57°26' E 017°09'1010.0
2014-Jul-30 12:33N 57°19' E 016°57'10 9.8
2014-Jul-30 11:34N 57°10' E 016°49'10 9.9
2014-Jul-30 10:33N 57°01' E 016°41'10 9.9
2014-Jul-30 09:34N 56°52' E 016°34'29 7.3
2014-Jul-30 05:33N 56°25' E 016°13'7 6.5
2014-Jul-30 04:32N 56°19' E 016°09'6 6.5
2014-Jul-30 03:34N 56°13' E 016°06'6 6.5
2014-Jul-30 02:34N 56°07' E 016°00'7 6.6
2014-Jul-30 01:34N 56°02' E 015°53'6 6.1
2014-Jul-30 00:33N 55°59' E 015°43'7 6.9
2014-Jul-29 23:33N 55°59' E 015°31'8 6.9
2014-Jul-29 22:27N 55°58' E 015°17'6 6.9
2014-Jul-29 21:33N 55°58' E 015°06'7 7.0
2014-Jul-29 20:33N 55°58' E 014°54'7 7.1
2014-Jul-29 19:33N 55°58' E 014°41'5 3.9
2014-Jul-29 18:11N 56°02' E 014°35'0 0.0
2014-Jul-29 17:28N 56°02' E 014°35'18 1.0
2014-Jul-28 23:29N 55°58' E 015°07'13 6.6
2014-Jul-28 21:32N 55°59' E 015°30'7 6.9
2014-Jul-28 20:30N 55°59' E 015°43'15 7.7
2014-Jul-28 18:33N 56°02' E 016°09'11 8.3
2014-Jul-28 17:17N 56°05' E 016°28'6 8.5
2014-Jul-28 16:33N 56°07' E 016°38'10 8.6
2014-Jul-28 15:22N 56°13' E 016°52'42 8.5
2014-Jul-28 10:21N 56°38' E 017°55'24 8.6
2014-Jul-28 07:33N 56°52' E 018°31'  
2014-Jul-25 15:33N 56°53' E 018°45'10 8.1
2014-Jul-25 14:22N 56°48' E 018°30'7 8.2
2014-Jul-25 13:31N 56°43' E 018°20'8 8.0
2014-Jul-25 12:34N 56°38' E 018°10'8 7.9
2014-Jul-25 11:33N 56°33' E 017°59'8 7.8
2014-Jul-25 10:34N 56°27' E 017°49'8 7.8
2014-Jul-25 09:33N 56°22' E 017°39'8 7.7
2014-Jul-25 08:34N 56°18' E 017°27'8 7.8
2014-Jul-25 07:32N 56°14' E 017°15'10 7.8
2014-Jul-25 06:13N 56°09' E 016°59'5 8.0
2014-Jul-25 05:33N 56°06' E 016°51'8 8.0
2014-Jul-25 04:33N 56°02' E 016°39'8 8.1
2014-Jul-25 03:33N 55°58' E 016°26'8 8.1
2014-Jul-25 02:33N 55°54' E 016°14'8 7.7
2014-Jul-25 01:33N 55°50' E 016°02'8 7.8
2014-Jul-25 00:34N 55°46' E 015°50'8 7.8
2014-Jul-24 23:34N 55°42' E 015°38'8 7.7
2014-Jul-24 22:33N 55°38' E 015°26'8 7.8
2014-Jul-24 21:33N 55°34' E 015°14'8 7.9
2014-Jul-24 20:34N 55°30' E 015°02'8 8.0
2014-Jul-24 19:34N 55°26' E 014°50'8 8.0
2014-Jul-24 18:33N 55°22' E 014°38'8 7.9
2014-Jul-24 17:31N 55°15' E 014°29'8 7.9
2014-Jul-24 16:33N 55°09' E 014°21'8 8.0
2014-Jul-24 15:33N 55°03' E 014°12'8 7.9
2014-Jul-24 14:33N 54°58' E 014°01'9 8.7
2014-Jul-24 13:33N 54°55' E 013°47'9 8.6
2014-Jul-24 12:33N 54°52' E 013°33'8 8.4
2014-Jul-24 11:33N 54°49' E 013°20'8 8.0
2014-Jul-24 10:33N 54°46' E 013°07'8 8.3
2014-Jul-24 09:33N 54°43' E 012°54'8 8.5
2014-Jul-24 08:33N 54°39' E 012°40'9 8.7
2014-Jul-24 07:33N 54°36' E 012°26'8 8.2
2014-Jul-24 06:33N 54°33' E 012°13'9 8.7
2014-Jul-24 05:33N 54°30' E 011°59'9 8.8
2014-Jul-24 04:33N 54°30' E 011°44'9 8.9
2014-Jul-24 03:33N 54°32' E 011°29'9 8.6
2014-Jul-24 02:33N 54°36' E 011°16'8 8.0
2014-Jul-24 01:33N 54°38' E 011°02'8 7.7
2014-Jul-24 00:33N 54°40' E 010°49'8 8.2
2014-Jul-23 23:33N 54°43' E 010°36'37 8.6
2014-Jul-23 19:18N 55°10' E 009°53'36 1.0
2014-Jul-22 05:21N 54°37' E 010°18'32 5.5
2014-Jul-21 23:27N 54°15' E 009°37'8 7.3
2014-Jul-21 22:24N 54°10' E 009°27'7 7.8
2014-Jul-21 21:28N 54°05' E 009°19'8 8.5
2014-Jul-21 20:29N 53°57' E 009°14'2 8.8
2014-Jul-21 20:18N 53°56' E 009°12'3 4.0
2014-Jul-21 19:33N 53°54' E 009°09'2 2.4
2014-Jul-21 18:33N 53°53' E 009°05'1111.2
2014-Jul-21 17:34N 53°51' E 008°46'1111.2
2014-Jul-21 16:34N 53°58' E 008°32'1110.7
2014-Jul-21 15:33N 53°59' E 008°14'10 9.7
2014-Jul-21 14:32N 53°55' E 007°58'7 7.6
2014-Jul-21 13:34N 53°50' E 008°07'9 9.1
2014-Jul-21 12:33N 53°43' E 008°17'1111.3
2014-Jul-21 11:33N 53°35' E 008°31'1010.4
2014-Jul-21 10:33N 53°25' E 008°30'  
Track history (hours):
 
Tides and Currents Weather Stations Pressure Air Temp Water Temp Dewpoint Dewpoint Depression Visibility Wind Speed Wind Dir Waves Ship Positions

Nathalie

Last reported at 2014-Jul-31 09:32 UTC. Time now 2014-Jul-31 13:38 UTC.
Position N 59°52' E 021°30'.

Length 64 m; draft 2.2 m.

Type: Cargo ship. MMSI: 230987660.

Date/timePositionNaut miles runAvg speedWind from/ knotsBaromVisibWave heightAir tempDewpointWater temp
2014-Jul-31 09:32N 59°52' E 021°30'17010.0
2014-Jul-30 16:26N 57°47' E 017°47'910.1
2014-Jul-30 15:34N 57°40' E 017°35'10 9.9
2014-Jul-30 14:33N 57°33' E 017°22'10 9.9
2014-Jul-30 13:34N 57°26' E 017°09'1010.0
2014-Jul-30 12:33N 57°19' E 016°57'10 9.8
2014-Jul-30 11:34N 57°10' E 016°49'10 9.9
2014-Jul-30 10:33N 57°01' E 016°41'10 9.9
2014-Jul-30 09:34N 56°52' E 016°34'29 7.3
2014-Jul-30 05:33N 56°25' E 016°13'7 6.5
2014-Jul-30 04:32N 56°19' E 016°09'6 6.5
2014-Jul-30 03:34N 56°13' E 016°06'6 6.5
2014-Jul-30 02:34N 56°07' E 016°00'7 6.6
2014-Jul-30 01:34N 56°02' E 015°53'6 6.1
2014-Jul-30 00:33N 55°59' E 015°43'7 6.9
2014-Jul-29 23:33N 55°59' E 015°31'8 6.9
2014-Jul-29 22:27N 55°58' E 015°17'6 6.9
2014-Jul-29 21:33N 55°58' E 015°06'7 7.0
2014-Jul-29 20:33N 55°58' E 014°54'7 7.1
2014-Jul-29 19:33N 55°58' E 014°41'5 3.9
2014-Jul-29 18:11N 56°02' E 014°35'0 0.0
2014-Jul-29 17:28N 56°02' E 014°35'18 1.0
2014-Jul-28 23:29N 55°58' E 015°07'13 6.6
2014-Jul-28 21:32N 55°59' E 015°30'7 6.9
2014-Jul-28 20:30N 55°59' E 015°43'15 7.7
2014-Jul-28 18:33N 56°02' E 016°09'11 8.3
2014-Jul-28 17:17N 56°05' E 016°28'6 8.5
2014-Jul-28 16:33N 56°07' E 016°38'10 8.6
2014-Jul-28 15:22N 56°13' E 016°52'42 8.5
2014-Jul-28 10:21N 56°38' E 017°55'24 8.6
2014-Jul-28 07:33N 56°52' E 018°31'  
2014-Jul-25 15:33N 56°53' E 018°45'10 8.1
2014-Jul-25 14:22N 56°48' E 018°30'7 8.2
2014-Jul-25 13:31N 56°43' E 018°20'8 8.0
2014-Jul-25 12:34N 56°38' E 018°10'8 7.9
2014-Jul-25 11:33N 56°33' E 017°59'8 7.8
2014-Jul-25 10:34N 56°27' E 017°49'8 7.8
2014-Jul-25 09:33N 56°22' E 017°39'8 7.7
2014-Jul-25 08:34N 56°18' E 017°27'8 7.8
2014-Jul-25 07:32N 56°14' E 017°15'10 7.8
2014-Jul-25 06:13N 56°09' E 016°59'5 8.0
2014-Jul-25 05:33N 56°06' E 016°51'8 8.0
2014-Jul-25 04:33N 56°02' E 016°39'8 8.1
2014-Jul-25 03:33N 55°58' E 016°26'8 8.1
2014-Jul-25 02:33N 55°54' E 016°14'8 7.7
2014-Jul-25 01:33N 55°50' E 016°02'8 7.8
2014-Jul-25 00:34N 55°46' E 015°50'8 7.8
2014-Jul-24 23:34N 55°42' E 015°38'8 7.7
2014-Jul-24 22:33N 55°38' E 015°26'8 7.8
2014-Jul-24 21:33N 55°34' E 015°14'8 7.9
2014-Jul-24 20:34N 55°30' E 015°02'8 8.0
2014-Jul-24 19:34N 55°26' E 014°50'8 8.0
2014-Jul-24 18:33N 55°22' E 014°38'8 7.9
2014-Jul-24 17:31N 55°15' E 014°29'8 7.9
2014-Jul-24 16:33N 55°09' E 014°21'8 8.0
2014-Jul-24 15:33N 55°03' E 014°12'8 7.9
2014-Jul-24 14:33N 54°58' E 014°01'9 8.7
2014-Jul-24 13:33N 54°55' E 013°47'9 8.6
2014-Jul-24 12:33N 54°52' E 013°33'8 8.4
2014-Jul-24 11:33N 54°49' E 013°20'8 8.0
2014-Jul-24 10:33N 54°46' E 013°07'8 8.3
2014-Jul-24 09:33N 54°43' E 012°54'8 8.5
2014-Jul-24 08:33N 54°39' E 012°40'9 8.7
2014-Jul-24 07:33N 54°36' E 012°26'8 8.2
2014-Jul-24 06:33N 54°33' E 012°13'9 8.7
2014-Jul-24 05:33N 54°30' E 011°59'9 8.8
2014-Jul-24 04:33N 54°30' E 011°44'9 8.9
2014-Jul-24 03:33N 54°32' E 011°29'9 8.6
2014-Jul-24 02:33N 54°36' E 011°16'8 8.0
2014-Jul-24 01:33N 54°38' E 011°02'8 7.7
2014-Jul-24 00:33N 54°40' E 010°49'8 8.2
2014-Jul-23 23:33N 54°43' E 010°36'37 8.6
2014-Jul-23 19:18N 55°10' E 009°53'36 1.0
2014-Jul-22 05:21N 54°37' E 010°18'32 5.5
2014-Jul-21 23:27N 54°15' E 009°37'8 7.3
2014-Jul-21 22:24N 54°10' E 009°27'7 7.8
2014-Jul-21 21:28N 54°05' E 009°19'8 8.5
2014-Jul-21 20:29N 53°57' E 009°14'2 8.8
2014-Jul-21 20:18N 53°56' E 009°12'3 4.0
2014-Jul-21 19:33N 53°54' E 009°09'2 2.4
2014-Jul-21 18:33N 53°53' E 009°05'1111.2
2014-Jul-21 17:34N 53°51' E 008°46'1111.2
2014-Jul-21 16:34N 53°58' E 008°32'1110.7
2014-Jul-21 15:33N 53°59' E 008°14'10 9.7
2014-Jul-21 14:32N 53°55' E 007°58'7 7.6
2014-Jul-21 13:34N 53°50' E 008°07'9 9.1
2014-Jul-21 12:33N 53°43' E 008°17'1111.3
2014-Jul-21 11:33N 53°35' E 008°31'1010.4
2014-Jul-21 10:33N 53°25' E 008°30'  

Dump ship's entire track history